Time;durP1;ratioP1;P1;durP2;ratioP2;P2;SDS_P1;SDS_P2;PMS_P1;PMS_P2;Temp;Humidity;BMP_temperature;BMP_pressure;BME280_temperature;BME280_humidity;BME280_pressure;Samples;Min_cycle;Max_cycle;Signal;HPM_P1;HPM_P2
2022/11/23 00:01:28;;;;;;;12.00;6.30;;;8.30;99.90;;;;;;5054513;28;20033;-64
2022/11/23 00:03:56;;;;;;;9.95;5.80;;;8.20;99.90;;;;;;5057420;28;20470;-63
2022/11/23 00:06:23;;;;;;;10.88;5.80;;;8.20;99.90;;;;;;5040231;28;20120;-64
2022/11/23 00:08:49;;;;;;;9.85;6.32;;;8.30;99.90;;;;;;5059086;28;20036;-64
2022/11/23 00:11:15;;;;;;;12.23;6.28;;;8.20;99.90;;;;;;5056694;28;20047;-64
2022/11/23 00:13:41;;;;;;;9.85;5.93;;;8.30;99.90;;;;;;5054522;28;20040;-63
2022/11/23 00:16:10;;;;;;;9.50;6.22;;;8.20;99.90;;;;;;5056170;28;20298;-64
2022/11/23 00:18:36;;;;;;;10.43;5.78;;;8.30;99.90;;;;;;5055869;28;20547;-63
2022/11/23 00:21:10;;;;;;;11.77;6.60;;;8.30;99.90;;;;;;5055474;28;20037;-63
2022/11/23 00:23:36;;;;;;;12.43;6.45;;;8.30;99.90;;;;;;5023648;28;20041;-63
2022/11/23 00:26:02;;;;;;;11.18;6.45;;;8.30;99.90;;;;;;5054622;28;20044;-63
2022/11/23 00:28:28;;;;;;;9.82;6.40;;;8.30;99.90;;;;;;5057377;28;20120;-63
2022/11/23 00:30:54;;;;;;;10.35;6.28;;;8.30;99.90;;;;;;5055443;28;20115;-63
2022/11/23 00:33:19;;;;;;;8.90;5.45;;;8.30;99.90;;;;;;5057145;28;20137;-63
2022/11/23 00:35:45;;;;;;;13.63;6.60;;;8.30;99.90;;;;;;5055909;28;20509;-63
2022/11/23 00:38:11;;;;;;;11.48;7.03;;;8.30;99.90;;;;;;5037153;28;20135;-62
2022/11/23 00:40:36;;;;;;;11.50;6.53;;;8.30;99.90;;;;;;5050283;28;20057;-63
2022/11/23 00:43:03;;;;;;;12.93;7.00;;;8.30;99.90;;;;;;5055394;28;20041;-63
2022/11/23 00:45:28;;;;;;;11.07;6.60;;;8.30;99.90;;;;;;5056442;28;20048;-64
2022/11/23 00:47:54;;;;;;;12.48;7.25;;;8.30;99.90;;;;;;5057733;28;20039;-63
2022/11/23 00:50:19;;;;;;;12.10;7.32;;;8.40;99.90;;;;;;5057300;28;20043;-63
2022/11/23 00:52:45;;;;;;;12.50;6.97;;;8.30;99.90;;;;;;5057223;28;20087;-62
2022/11/23 00:55:10;;;;;;;11.90;6.80;;;8.30;99.90;;;;;;5054673;28;20066;-64
2022/11/23 00:57:36;;;;;;;13.38;6.78;;;8.30;99.90;;;;;;5048827;28;20112;-62
2022/11/23 01:00:04;;;;;;;9.70;6.95;;;8.30;99.90;;;;;;5053355;28;20045;-63
2022/11/23 01:02:29;;;;;;;12.07;7.70;;;8.40;99.90;;;;;;5055333;28;20041;-63
2022/11/23 01:04:58;;;;;;;14.50;7.68;;;8.40;99.90;;;;;;5055885;28;20047;-63
2022/11/23 01:07:24;;;;;;;12.50;7.15;;;8.30;99.90;;;;;;5059042;28;20044;-63
2022/11/23 01:09:49;;;;;;;15.18;7.15;;;8.40;99.90;;;;;;5055857;28;20052;-62
2022/11/23 01:12:15;;;;;;;12.68;6.82;;;8.30;99.90;;;;;;5055429;28;20047;-63
2022/11/23 01:14:40;;;;;;;13.13;7.55;;;8.40;99.90;;;;;;5055293;28;20119;-62
2022/11/23 01:17:06;;;;;;;11.50;6.45;;;8.40;99.90;;;;;;5054709;28;20539;-63
2022/11/23 01:19:31;;;;;;;10.75;7.38;;;8.40;99.90;;;;;;5056390;28;20033;-62
2022/11/23 01:21:57;;;;;;;13.20;7.18;;;8.40;99.90;;;;;;5056608;28;20151;-63
2022/11/23 01:24:23;;;;;;;13.93;7.57;;;8.40;99.90;;;;;;5056190;28;20349;-63
2022/11/23 01:26:52;;;;;;;12.90;7.53;;;8.30;99.90;;;;;;5055487;28;20043;-63
2022/11/23 01:29:19;;;;;;;13.88;7.78;;;8.40;99.90;;;;;;5053102;28;20072;-63
2022/11/23 01:31:44;;;;;;;9.52;8.02;;;8.40;99.90;;;;;;5055638;28;20033;-63
2022/11/23 01:34:13;;;;;;;13.50;7.82;;;8.40;99.90;;;;;;5057288;28;21342;-63
2022/11/23 01:36:38;;;;;;;14.32;7.60;;;8.40;99.90;;;;;;5053957;28;20060;-63
2022/11/23 01:39:05;;;;;;;10.52;7.85;;;8.40;99.90;;;;;;5054072;28;20036;-63
2022/11/23 01:41:36;;;;;;;13.32;9.00;;;8.40;99.90;;;;;;5041096;28;20362;-63
2022/11/23 01:44:30;;;;;;;13.23;8.00;;;8.40;99.90;;;;;;5032421;28;20045;-63
2022/11/23 01:47:01;;;;;;;12.82;8.15;;;8.40;99.90;;;;;;5035979;28;20125;-63
2022/11/23 01:49:33;;;;;;;14.05;8.95;;;8.40;99.90;;;;;;5039017;28;20041;-63
2022/11/23 01:52:12;;;;;;;12.52;8.65;;;8.40;99.90;;;;;;5033985;28;20043;-63
2022/11/23 01:54:45;;;;;;;13.70;9.00;;;8.40;99.90;;;;;;5028395;28;20030;-63
2022/11/23 01:57:39;;;;;;;14.38;8.52;;;8.40;99.90;;;;;;5035749;28;20707;-63
2022/11/23 02:00:05;;;;;;;12.43;8.27;;;8.40;99.90;;;;;;5033422;28;20125;-63
2022/11/23 02:02:31;;;;;;;15.13;8.65;;;8.40;99.90;;;;;;5038011;28;20029;-63
2022/11/23 02:04:59;;;;;;;11.98;8.57;;;8.50;99.90;;;;;;5037693;28;20026;-63
2022/11/23 02:07:25;;;;;;;11.85;9.13;;;8.40;99.90;;;;;;5042109;28;20124;-63
2022/11/23 02:09:51;;;;;;;15.05;9.82;;;8.40;99.90;;;;;;5038639;28;20038;-63
2022/11/23 02:12:17;;;;;;;15.32;9.80;;;8.40;99.90;;;;;;5036311;28;20029;-63
2022/11/23 02:14:43;;;;;;;16.83;11.02;;;8.40;99.90;;;;;;5037471;28;20112;-62
2022/11/23 02:17:09;;;;;;;14.55;9.75;;;8.40;99.90;;;;;;5038386;28;20422;-64
2022/11/23 02:19:50;;;;;;;15.43;10.00;;;8.40;99.90;;;;;;5039323;28;20068;-62
2022/11/23 02:22:36;;;;;;;14.73;9.90;;;8.40;99.90;;;;;;5039973;28;20081;-63
2022/11/23 02:25:27;;;;;;;17.33;11.25;;;8.50;99.90;;;;;;5035964;28;20045;-63
2022/11/23 02:27:53;;;;;;;15.98;10.73;;;8.50;99.90;;;;;;5026237;28;20049;-62
2022/11/23 02:30:19;;;;;;;15.50;10.93;;;8.50;99.90;;;;;;5038563;28;20087;-63
2022/11/23 02:32:45;;;;;;;16.73;11.50;;;8.40;99.90;;;;;;5040242;28;20032;-63
2022/11/23 02:35:10;;;;;;;16.33;11.85;;;8.50;99.90;;;;;;5042540;28;20037;-63
2022/11/23 02:37:37;;;;;;;17.25;12.00;;;8.50;99.90;;;;;;5030676;28;20478;-63
2022/11/23 02:40:10;;;;;;;17.65;12.93;;;8.40;99.90;;;;;;5036444;28;20060;-63
2022/11/23 02:42:37;;;;;;;18.13;13.38;;;8.40;99.90;;;;;;5057413;28;20067;-63
2022/11/23 02:45:11;;;;;;;20.33;13.05;;;8.50;99.90;;;;;;5059400;28;20223;-63
2022/11/23 02:47:37;;;;;;;20.92;14.25;;;8.40;99.90;;;;;;5055229;28;20099;-62
2022/11/23 02:50:03;;;;;;;21.77;13.75;;;8.40;99.90;;;;;;5041464;28;20045;-62
2022/11/23 02:52:28;;;;;;;18.23;15.13;;;8.50;99.90;;;;;;5061826;28;20064;-62
2022/11/23 02:54:54;;;;;;;22.10;14.13;;;8.50;99.90;;;;;;5037747;28;20454;-63
2022/11/23 02:57:19;;;;;;;21.58;14.70;;;8.50;99.90;;;;;;5057547;28;20064;-63
2022/11/23 02:59:45;;;;;;;24.10;15.13;;;8.50;99.90;;;;;;5055700;28;20033;-62
2022/11/23 03:02:10;;;;;;;22.65;14.65;;;8.50;99.90;;;;;;5056611;28;20052;-63
2022/11/23 03:04:36;;;;;;;21.92;15.25;;;8.50;99.90;;;;;;5041387;28;20033;-63
2022/11/23 03:07:02;;;;;;;21.60;15.57;;;8.50;99.90;;;;;;5060417;28;20078;-62
2022/11/23 03:09:28;;;;;;;23.35;15.65;;;8.50;99.90;;;;;;5060034;28;20040;-63
2022/11/23 03:11:54;;;;;;;27.95;15.52;;;8.50;99.90;;;;;;5054631;28;20047;-62
2022/11/23 03:14:20;;;;;;;22.10;16.25;;;8.50;99.90;;;;;;5054876;28;20215;-62
2022/11/23 03:16:45;;;;;;;23.40;15.63;;;8.50;99.90;;;;;;5055714;28;20132;-62
2022/11/23 03:19:12;;;;;;;21.63;14.98;;;8.50;99.90;;;;;;5060158;28;20467;-62
2022/11/23 03:21:38;;;;;;;22.15;16.17;;;8.40;99.90;;;;;;5058118;28;20084;-63
2022/11/23 03:24:04;;;;;;;23.10;15.65;;;8.50;99.90;;;;;;5058552;28;20084;-63
2022/11/23 03:26:29;;;;;;;23.17;17.13;;;8.50;99.90;;;;;;5058009;28;20480;-63
2022/11/23 03:28:55;;;;;;;24.17;15.45;;;8.40;99.90;;;;;;5055290;28;20493;-63
2022/11/23 03:31:20;;;;;;;25.20;16.00;;;8.40;99.90;;;;;;5056304;28;20127;-63
2022/11/23 03:33:46;;;;;;;25.35;17.20;;;8.30;99.90;;;;;;5060320;28;20037;-63
2022/11/23 03:36:11;;;;;;;26.50;17.88;;;8.40;99.90;;;;;;5056636;28;20071;-63
2022/11/23 03:38:37;;;;;;;27.60;18.23;;;8.40;99.90;;;;;;5056784;28;20044;-63
2022/11/23 03:41:02;;;;;;;26.27;19.08;;;8.30;99.90;;;;;;5050042;28;20057;-63
2022/11/23 03:43:28;;;;;;;24.83;18.10;;;8.40;99.90;;;;;;5056683;28;20578;-62
2022/11/23 03:45:54;;;;;;;28.27;20.13;;;8.40;99.90;;;;;;5058389;28;20032;-62
2022/11/23 03:48:19;;;;;;;26.38;18.35;;;8.40;99.90;;;;;;5041337;28;20461;-62
2022/11/23 03:50:45;;;;;;;27.25;18.65;;;8.40;99.90;;;;;;5058311;28;20059;-61
2022/11/23 03:53:11;;;;;;;28.90;19.75;;;8.40;99.90;;;;;;5058076;28;20038;-63
2022/11/23 03:55:36;;;;;;;25.88;18.80;;;8.40;99.90;;;;;;5054579;28;20079;-63
2022/11/23 03:58:02;;;;;;;26.25;20.38;;;8.30;99.90;;;;;;5054522;28;20124;-63
2022/11/23 04:00:29;;;;;;;28.75;19.73;;;8.30;99.90;;;;;;5056061;28;20047;-62
2022/11/23 04:02:55;;;;;;;32.38;20.20;;;8.30;99.90;;;;;;5055404;28;20044;-61
2022/11/23 04:05:21;;;;;;;27.67;21.40;;;8.30;99.90;;;;;;5059397;28;20046;-63
2022/11/23 04:07:48;;;;;;;29.70;21.40;;;8.30;99.90;;;;;;5059753;28;20119;-62
2022/11/23 04:10:15;;;;;;;27.92;19.50;;;8.20;99.90;;;;;;5053233;28;20138;-63
2022/11/23 04:12:40;;;;;;;30.88;21.77;;;8.30;99.90;;;;;;5058250;28;20036;-63
2022/11/23 04:15:07;;;;;;;27.98;21.50;;;8.30;99.90;;;;;;5054072;28;20423;-62
2022/11/23 04:17:32;;;;;;;28.77;21.08;;;8.20;99.90;;;;;;5037587;28;20048;-62
2022/11/23 04:19:58;;;;;;;26.77;20.25;;;8.10;99.90;;;;;;5057492;28;20040;-62
2022/11/23 04:22:23;;;;;;;28.23;21.60;;;8.20;99.90;;;;;;5056816;28;20048;-62
2022/11/23 04:24:50;;;;;;;30.42;21.70;;;8.10;99.90;;;;;;5055238;28;20069;-62
2022/11/23 04:27:15;;;;;;;28.17;21.10;;;8.10;99.90;;;;;;5038567;28;20379;-62
2022/11/23 04:29:41;;;;;;;27.90;20.45;;;8.10;99.90;;;;;;5057796;28;20048;-61
2022/11/23 04:32:08;;;;;;;29.10;20.27;;;8.10;99.90;;;;;;5057363;28;20724;-62
2022/11/23 04:34:33;;;;;;;25.08;20.02;;;8.10;99.90;;;;;;5059877;28;20498;-63
2022/11/23 04:36:59;;;;;;;28.00;19.98;;;8.00;99.90;;;;;;5052796;28;20124;-62
2022/11/23 04:39:24;;;;;;;27.67;20.63;;;8.20;99.90;;;;;;5034189;28;20034;-62
2022/11/23 04:41:50;;;;;;;31.23;19.85;;;8.10;99.90;;;;;;5057821;28;20044;-63
2022/11/23 04:44:19;;;;;;;26.85;20.20;;;8.20;99.90;;;;;;5054290;28;20041;-63
2022/11/23 04:46:45;;;;;;;26.83;19.40;;;8.20;99.90;;;;;;5040708;28;20024;-62
2022/11/23 04:49:12;;;;;;;27.92;19.23;;;8.20;99.90;;;;;;5058382;28;20139;-62
2022/11/23 04:51:38;;;;;;;26.45;18.30;;;8.20;99.90;;;;;;5058018;28;20119;-62
2022/11/23 04:54:04;;;;;;;25.00;18.00;;;8.30;99.90;;;;;;5057004;28;20418;-62
2022/11/23 04:56:29;;;;;;;23.30;16.30;;;8.30;99.90;;;;;;5053536;28;20095;-62
2022/11/23 04:58:55;;;;;;;23.70;16.77;;;8.30;99.90;;;;;;5054445;28;20110;-62
2022/11/23 05:01:20;;;;;;;24.75;16.95;;;8.30;99.90;;;;;;5038716;28;20440;-63
2022/11/23 05:03:46;;;;;;;21.00;15.30;;;8.30;99.90;;;;;;5057060;28;20093;-63
2022/11/23 05:06:12;;;;;;;21.08;15.93;;;8.30;99.90;;;;;;5056356;28;20077;-62
2022/11/23 05:08:37;;;;;;;22.80;14.07;;;8.30;99.90;;;;;;5060076;28;20041;-62
2022/11/23 05:11:03;;;;;;;23.33;14.32;;;8.40;99.90;;;;;;5051401;28;20111;-62
2022/11/23 05:13:29;;;;;;;23.83;14.98;;;8.30;99.90;;;;;;5053399;28;20073;-62
2022/11/23 05:15:55;;;;;;;19.00;14.82;;;8.30;99.90;;;;;;5055616;28;20051;-63
2022/11/23 05:18:21;;;;;;;22.30;15.20;;;8.30;99.90;;;;;;5054825;28;20044;-63
2022/11/23 05:20:48;;;;;;;24.13;14.45;;;8.40;99.90;;;;;;5056249;28;20037;-63
2022/11/23 05:23:13;;;;;;;22.27;14.25;;;8.20;99.90;;;;;;5058903;28;20048;-62
2022/11/23 05:25:39;;;;;;;23.23;13.45;;;8.20;99.90;;;;;;5052558;28;20033;-62
2022/11/23 05:28:05;;;;;;;21.15;13.23;;;8.20;99.90;;;;;;5056071;28;20028;-62
2022/11/23 05:30:30;;;;;;;18.25;12.48;;;8.10;99.90;;;;;;5056843;28;20029;-62
2022/11/23 05:33:00;;;;;;;21.33;13.18;;;8.10;99.90;;;;;;5056954;28;20386;-63
2022/11/23 05:35:26;;;;;;;20.42;12.82;;;8.10;99.90;;;;;;5058587;28;20505;-63
2022/11/23 05:37:52;;;;;;;18.67;12.23;;;8.10;99.90;;;;;;5055576;28;20147;-62
2022/11/23 05:40:18;;;;;;;19.73;11.13;;;8.00;99.90;;;;;;5039324;28;20037;-62
2022/11/23 05:42:43;;;;;;;15.38;10.25;;;7.90;99.90;;;;;;5059632;28;20522;-62
2022/11/23 05:45:09;;;;;;;16.45;11.25;;;7.90;99.90;;;;;;5042079;28;20060;-62
2022/11/23 05:47:34;;;;;;;17.30;10.40;;;7.90;99.90;;;;;;5059500;28;20033;-62
2022/11/23 05:50:01;;;;;;;19.00;9.77;;;7.90;99.90;;;;;;5061468;28;20072;-62
2022/11/23 05:52:26;;;;;;;17.60;9.98;;;7.90;99.90;;;;;;5062704;28;20032;-63
2022/11/23 05:54:52;;;;;;;17.33;9.30;;;7.80;99.90;;;;;;5056604;28;20447;-62
2022/11/23 05:57:18;;;;;;;16.00;9.80;;;7.80;99.90;;;;;;5057008;28;20045;-62
2022/11/23 05:59:44;;;;;;;15.25;8.65;;;7.80;99.90;;;;;;5054961;28;20352;-62
2022/11/23 06:02:09;;;;;;;13.90;8.18;;;7.90;99.90;;;;;;5055638;28;20071;-62
2022/11/23 06:04:35;;;;;;;14.00;7.97;;;7.80;99.90;;;;;;5059838;28;20047;-62
2022/11/23 06:07:01;;;;;;;12.48;8.63;;;7.80;99.90;;;;;;5067500;28;20121;-62
2022/11/23 06:09:27;;;;;;;15.57;8.55;;;7.80;99.90;;;;;;5061589;28;20041;-62
2022/11/23 06:11:52;;;;;;;15.10;7.90;;;7.80;99.90;;;;;;5051724;28;20512;-64
2022/11/23 06:14:18;;;;;;;12.57;7.60;;;7.80;99.90;;;;;;5060064;28;20041;-62
2022/11/23 06:16:44;;;;;;;13.75;7.78;;;7.80;99.90;;;;;;5058207;28;20124;-63
2022/11/23 06:19:09;;;;;;;13.60;7.88;;;7.80;99.90;;;;;;5058622;28;20374;-63
2022/11/23 06:21:35;;;;;;;14.43;7.45;;;7.90;99.90;;;;;;5058624;28;20052;-62
2022/11/23 06:24:01;;;;;;;14.88;7.35;;;7.80;99.90;;;;;;5058477;28;20048;-62
2022/11/23 06:26:26;;;;;;;12.32;7.10;;;7.90;99.90;;;;;;5057107;28;20025;-62
2022/11/23 06:28:53;;;;;;;13.23;6.72;;;7.90;99.90;;;;;;5060401;28;20171;-62
2022/11/23 06:31:19;;;;;;;12.85;6.50;;;7.90;99.90;;;;;;5057570;28;20424;-62
2022/11/23 06:33:45;;;;;;;14.45;7.00;;;7.90;99.90;;;;;;5060102;28;20087;-63
2022/11/23 06:36:11;;;;;;;17.88;7.30;;;7.90;99.90;;;;;;5059924;28;20111;-62
2022/11/23 06:38:37;;;;;;;12.82;6.97;;;8.00;99.90;;;;;;5052548;28;20106;-62
2022/11/23 06:41:03;;;;;;;14.23;6.80;;;7.90;99.90;;;;;;5054071;28;20439;-63
2022/11/23 06:43:28;;;;;;;12.27;6.10;;;7.90;99.90;;;;;;5060683;28;20126;-62
2022/11/23 06:45:56;;;;;;;15.80;6.28;;;7.90;99.90;;;;;;5054954;28;20454;-63
2022/11/23 06:48:23;;;;;;;14.38;6.00;;;7.90;99.90;;;;;;5053169;28;20060;-64
2022/11/23 06:50:50;;;;;;;12.23;5.53;;;8.00;99.90;;;;;;5059154;28;20028;-64
2022/11/23 06:53:15;;;;;;;21.45;6.78;;;8.00;99.90;;;;;;5055838;28;20032;-64
2022/11/23 06:55:41;;;;;;;14.20;5.88;;;8.00;99.90;;;;;;5057205;28;20028;-64
2022/11/23 06:58:08;;;;;;;11.88;5.85;;;8.00;99.90;;;;;;5055526;28;20099;-62
2022/11/23 07:00:34;;;;;;;12.13;5.55;;;8.00;99.90;;;;;;5059650;28;20044;-62
2022/11/23 07:03:00;;;;;;;11.23;5.60;;;8.10;99.90;;;;;;5051509;28;20037;-62
2022/11/23 07:05:26;;;;;;;11.77;6.15;;;8.10;99.90;;;;;;5051311;28;20458;-62
2022/11/23 07:07:52;;;;;;;13.75;5.90;;;8.10;99.90;;;;;;5038788;28;20546;-61
2022/11/23 07:10:19;;;;;;;12.43;5.75;;;8.10;99.90;;;;;;5055816;28;20147;-62
2022/11/23 07:12:45;;;;;;;12.85;5.78;;;8.10;99.90;;;;;;5061331;28;20040;-64
2022/11/23 07:15:12;;;;;;;13.27;6.47;;;8.10;99.90;;;;;;5024158;28;20064;-62
2022/11/23 07:17:39;;;;;;;11.52;5.68;;;8.10;99.90;;;;;;5045207;28;20072;-62
2022/11/23 07:20:07;;;;;;;16.10;6.40;;;8.20;99.90;;;;;;5060721;28;20032;-63
2022/11/23 07:22:33;;;;;;;12.32;6.43;;;8.10;99.90;;;;;;5051934;28;20051;-63
2022/11/23 07:24:58;;;;;;;14.05;6.53;;;8.20;99.90;;;;;;5048060;28;20336;-62
2022/11/23 07:27:24;;;;;;;14.13;7.00;;;8.20;99.90;;;;;;5051994;28;20072;-63
2022/11/23 07:29:49;;;;;;;14.20;6.30;;;8.20;99.90;;;;;;5055793;28;20037;-63
2022/11/23 07:32:15;;;;;;;11.75;5.50;;;8.30;99.90;;;;;;5055995;28;20039;-61
2022/11/23 07:34:40;;;;;;;10.98;6.18;;;8.20;99.90;;;;;;5054825;28;20346;-61
2022/11/23 07:37:06;;;;;;;12.98;5.60;;;8.30;99.90;;;;;;5054567;28;20106;-62
2022/11/23 07:39:32;;;;;;;14.27;5.85;;;8.20;99.90;;;;;;5055724;28;20464;-62
2022/11/23 07:41:57;;;;;;;12.35;5.63;;;8.20;99.90;;;;;;5063303;28;20056;-62
2022/11/23 07:44:23;;;;;;;13.50;5.28;;;8.30;99.90;;;;;;5059672;28;20128;-63
2022/11/23 07:46:52;;;;;;;13.38;5.68;;;8.30;99.90;;;;;;5058449;28;20072;-62
2022/11/23 07:49:18;;;;;;;15.35;6.35;;;8.30;99.90;;;;;;5053733;28;20560;-62
2022/11/23 07:51:43;;;;;;;12.43;6.25;;;8.30;99.90;;;;;;5053524;28;20040;-64
2022/11/23 07:54:09;;;;;;;13.93;6.05;;;8.30;99.90;;;;;;5056900;28;20076;-63
2022/11/23 07:56:34;;;;;;;13.55;5.63;;;8.30;99.90;;;;;;5054441;28;20037;-63
2022/11/23 07:59:00;;;;;;;15.68;6.10;;;8.30;99.90;;;;;;5055251;28;20036;-63
2022/11/23 08:01:25;;;;;;;14.73;5.50;;;8.30;99.90;;;;;;5057553;28;20355;-63
2022/11/23 08:03:51;;;;;;;12.00;5.32;;;8.40;99.90;;;;;;5058066;28;20036;-63
2022/11/23 08:06:17;;;;;;;13.02;5.25;;;8.40;99.90;;;;;;5054628;28;20036;-62
2022/11/23 08:08:42;;;;;;;13.10;4.80;;;8.40;99.90;;;;;;5056849;28;20395;-63
2022/11/23 08:11:09;;;;;;;14.60;5.45;;;8.40;99.90;;;;;;5052447;28;20090;-63
2022/11/23 08:13:38;;;;;;;14.93;5.35;;;8.40;99.90;;;;;;5054401;28;20036;-63
2022/11/23 08:16:04;;;;;;;13.77;5.38;;;8.50;99.90;;;;;;5056408;28;20274;-64
2022/11/23 08:18:29;;;;;;;13.10;4.75;;;8.50;99.90;;;;;;5054866;28;20493;-62
2022/11/23 08:20:59;;;;;;;13.48;5.05;;;8.50;99.90;;;;;;5056574;28;20036;-63
2022/11/23 08:23:25;;;;;;;12.13;5.05;;;8.40;99.90;;;;;;5058724;28;20055;-63
2022/11/23 08:25:50;;;;;;;15.15;5.07;;;8.40;99.90;;;;;;5055447;28;20037;-64
2022/11/23 08:28:16;;;;;;;14.73;5.32;;;8.40;99.90;;;;;;5055420;28;20128;-63
2022/11/23 08:30:42;;;;;;;13.98;4.53;;;8.40;99.90;;;;;;5057929;28;20044;-62
2022/11/23 08:33:08;;;;;;;12.88;4.93;;;8.40;99.90;;;;;;5056160;28;20033;-63
2022/11/23 08:35:38;;;;;;;12.90;5.15;;;8.40;99.90;;;;;;5054731;28;20492;-63
2022/11/23 08:38:04;;;;;;;15.00;4.65;;;8.40;99.90;;;;;;5052350;28;20182;-63
2022/11/23 08:40:30;;;;;;;16.33;5.10;;;8.40;99.90;;;;;;5052913;28;20432;-62
2022/11/23 08:42:56;;;;;;;13.93;4.80;;;8.30;99.90;;;;;;5035507;28;20041;-63
2022/11/23 08:45:22;;;;;;;11.27;4.15;;;8.30;99.90;;;;;;5036624;28;20038;-63
2022/11/23 08:47:48;;;;;;;15.23;5.10;;;8.30;99.90;;;;;;5038299;28;20851;-63
2022/11/23 08:50:13;;;;;;;19.38;4.65;;;8.30;99.90;;;;;;5036453;28;20025;-63
2022/11/23 08:52:39;;;;;;;16.65;4.63;;;8.30;99.90;;;;;;5033734;28;20111;-62
2022/11/23 08:55:05;;;;;;;17.58;5.00;;;8.30;99.90;;;;;;5033248;28;20044;-64
2022/11/23 08:57:31;;;;;;;17.55;4.93;;;8.40;99.90;;;;;;5035156;28;20037;-62
2022/11/23 08:59:56;;;;;;;13.18;4.82;;;8.40;99.90;;;;;;5034515;28;20079;-62
2022/11/23 09:02:22;;;;;;;16.05;4.80;;;8.40;99.90;;;;;;5035531;28;20041;-63
2022/11/23 09:04:49;;;;;;;16.40;5.22;;;8.40;99.90;;;;;;5034553;28;20348;-62
2022/11/23 09:07:15;;;;;;;13.10;4.28;;;8.50;99.90;;;;;;5037242;28;20463;-63
2022/11/23 09:09:40;;;;;;;13.80;4.70;;;8.50;99.90;;;;;;5034741;28;20164;-62
2022/11/23 09:12:06;;;;;;;13.07;4.88;;;8.60;99.90;;;;;;5032800;28;20052;-63
2022/11/23 09:14:32;;;;;;;13.43;4.35;;;8.60;99.90;;;;;;5040001;28;20191;-62
2022/11/23 09:17:02;;;;;;;13.55;4.80;;;8.60;99.90;;;;;;5037265;28;20167;-63
2022/11/23 09:19:27;;;;;;;14.90;4.63;;;8.60;99.90;;;;;;5040041;28;20400;-63
2022/11/23 09:21:53;;;;;;;17.90;4.85;;;8.70;99.90;;;;;;5038277;28;20041;-62
2022/11/23 09:24:19;;;;;;;16.42;4.13;;;8.70;99.90;;;;;;5015317;28;20052;-62
2022/11/23 09:26:45;;;;;;;15.60;4.53;;;8.70;99.90;;;;;;5042434;28;20140;-63
2022/11/23 09:29:11;;;;;;;18.00;4.50;;;8.70;99.90;;;;;;5006031;28;20146;-62
2022/11/23 09:31:37;;;;;;;17.63;4.97;;;8.80;99.90;;;;;;5035369;28;20064;-62
2022/11/23 09:34:03;;;;;;;14.30;4.15;;;8.80;99.90;;;;;;5039358;28;20446;-62
2022/11/23 09:36:29;;;;;;;11.60;4.13;;;8.80;99.90;;;;;;5034857;28;20052;-63
2022/11/23 09:38:54;;;;;;;17.83;4.00;;;8.90;99.90;;;;;;5039145;28;20033;-63
2022/11/23 09:41:35;;;;;;;17.80;3.92;;;8.90;99.90;;;;;;5034349;28;20057;-63
2022/11/23 09:44:28;;;;;;;10.63;4.07;;;8.90;99.90;;;;;;5036311;28;20056;-62
2022/11/23 09:47:01;;;;;;;15.05;3.97;;;9.00;99.90;;;;;;5039149;28;20033;-62
2022/11/23 09:49:49;;;;;;;16.85;4.60;;;9.00;99.90;;;;;;5042973;28;20262;-62
2022/11/23 09:52:19;;;;;;;12.25;3.97;;;9.00;99.90;;;;;;5037186;28;20037;-63
2022/11/23 09:54:47;;;;;;;12.90;4.10;;;9.10;99.90;;;;;;5039328;28;20045;-62
2022/11/23 09:57:17;;;;;;;15.38;3.88;;;9.10;99.90;;;;;;5038905;28;20041;-62
2022/11/23 09:59:48;;;;;;;14.30;3.92;;;9.00;99.90;;;;;;5037257;28;20052;-62
2022/11/23 10:02:21;;;;;;;13.73;4.70;;;9.10;99.90;;;;;;5035686;28;20414;-62
2022/11/23 10:04:47;;;;;;;17.00;4.43;;;9.10;99.90;;;;;;5040139;28;20045;-62
2022/11/23 10:07:48;;;;;;;17.52;4.32;;;9.10;99.90;;;;;;5042497;28;20040;-62
2022/11/23 10:10:49;;;;;;;10.00;3.90;;;9.10;99.90;;;;;;5017605;28;20041;-62
2022/11/23 10:13:35;;;;;;;11.77;3.45;;;9.10;99.90;;;;;;5032058;28;20067;-63
2022/11/23 10:16:35;;;;;;;16.60;3.90;;;9.10;99.90;;;;;;5036642;28;20070;-62
2022/11/23 10:19:30;;;;;;;15.70;3.70;;;9.10;99.90;;;;;;5037931;28;20469;-62
2022/11/23 10:22:09;;;;;;;17.00;4.15;;;9.10;99.90;;;;;;5037293;28;20041;-61
2022/11/23 10:24:44;;;;;;;16.92;3.83;;;9.20;99.90;;;;;;5039320;28;20045;-62
2022/11/23 10:27:16;;;;;;;16.15;3.75;;;9.30;99.90;;;;;;5039186;28;20049;-62
2022/11/23 10:29:42;;;;;;;13.13;3.80;;;9.30;99.90;;;;;;5038325;28;20044;-62
2022/11/23 10:32:31;;;;;;;16.52;3.72;;;9.30;99.90;;;;;;5038118;28;20037;-62
2022/11/23 10:35:05;;;;;;;16.15;3.88;;;9.30;99.90;;;;;;5035653;28;20033;-62
2022/11/23 10:37:32;;;;;;;16.85;3.97;;;9.30;99.90;;;;;;5015631;28;20393;-63
2022/11/23 10:39:58;;;;;;;13.57;3.92;;;9.40;99.90;;;;;;5033863;28;20036;-63
2022/11/23 10:42:36;;;;;;;17.48;4.13;;;9.40;99.90;;;;;;5036167;28;20092;-63
2022/11/23 10:45:03;;;;;;;12.55;3.65;;;9.50;99.90;;;;;;5037967;28;20094;-63
2022/11/23 10:47:38;;;;;;;15.07;3.75;;;9.50;99.90;;;;;;5038671;28;20037;-62
2022/11/23 10:50:39;;;;;;;12.10;3.20;;;9.70;99.90;;;;;;5038006;28;20041;-62
2022/11/23 10:53:05;;;;;;;15.50;4.72;;;9.80;99.90;;;;;;5031862;28;20360;-63
2022/11/23 10:55:44;;;;;;;11.65;3.10;;;9.90;99.90;;;;;;5036102;28;20098;-62
2022/11/23 10:58:33;;;;;;;18.85;4.00;;;9.90;99.90;;;;;;5033358;28;20129;-62
2022/11/23 11:01:06;;;;;;;16.42;4.05;;;10.00;99.90;;;;;;5019368;28;20045;-63
2022/11/23 11:03:33;;;;;;;15.13;4.22;;;10.00;99.90;;;;;;5038036;28;20084;-62
2022/11/23 11:06:00;;;;;;;13.38;3.38;;;10.00;99.90;;;;;;5033469;28;20041;-63
2022/11/23 11:08:47;;;;;;;13.02;3.95;;;10.00;99.90;;;;;;5038205;28;20203;-63
2022/11/23 11:11:28;;;;;;;11.77;3.45;;;10.10;99.90;;;;;;5045658;28;20052;-62
2022/11/23 11:14:07;;;;;;;13.95;3.60;;;10.10;99.90;;;;;;5038938;28;20042;-61
2022/11/23 11:16:45;;;;;;;14.50;3.90;;;10.10;99.90;;;;;;5035347;28;20435;-61
2022/11/23 11:19:20;;;;;;;14.90;4.30;;;10.20;99.90;;;;;;5037913;28;20056;-62
2022/11/23 11:21:45;;;;;;;13.50;4.47;;;10.10;99.90;;;;;;5037238;28;20037;-62
2022/11/23 11:24:19;;;;;;;13.20;4.22;;;10.20;99.90;;;;;;5022155;28;20774;-62
2022/11/23 11:26:56;;;;;;;14.85;3.38;;;10.20;99.90;;;;;;5036062;28;20090;-61
2022/11/23 11:29:31;;;;;;;12.55;3.22;;;10.30;99.90;;;;;;5032808;28;20109;-64
2022/11/23 11:32:36;;;;;;;12.10;3.58;;;10.30;99.90;;;;;;5033738;28;20055;-62
2022/11/23 11:35:26;;;;;;;10.75;4.05;;;10.30;99.90;;;;;;5036932;28;20033;-62
2022/11/23 11:37:56;;;;;;;16.17;4.65;;;10.30;99.90;;;;;;5015778;28;20068;-62
2022/11/23 11:40:38;;;;;;;14.93;5.25;;;10.30;99.90;;;;;;5036539;28;20064;-62
2022/11/23 11:43:19;;;;;;;11.90;3.80;;;10.40;99.90;;;;;;5056530;28;20052;-61
2022/11/23 11:45:47;;;;;;;11.35;3.45;;;10.30;99.90;;;;;;5053769;28;20071;-62
2022/11/23 11:48:15;;;;;;;10.25;2.95;;;10.30;99.90;;;;;;5064521;28;20032;-62
2022/11/23 11:50:51;;;;;;;12.20;2.80;;;10.30;99.90;;;;;;5056740;28;20037;-62
2022/11/23 11:53:23;;;;;;;11.30;3.03;;;10.30;99.90;;;;;;5036449;28;20040;-63
2022/11/23 11:56:02;;;;;;;14.25;4.03;;;10.30;99.90;;;;;;5056932;28;20366;-62
2022/11/23 11:58:29;;;;;;;14.88;3.08;;;10.30;99.90;;;;;;5059358;28;20120;-63
2022/11/23 12:01:29;;;;;;;11.90;3.25;;;10.30;99.90;;;;;;5061077;28;20051;-62
2022/11/23 12:03:59;;;;;;;14.10;2.70;;;10.30;99.90;;;;;;5032467;28;20296;-63
2022/11/23 12:06:41;;;;;;;10.25;3.42;;;10.30;99.90;;;;;;5062176;28;20124;-62
2022/11/23 12:09:23;;;;;;;13.18;3.53;;;10.30;99.90;;;;;;5058309;28;20103;-63
2022/11/23 12:11:48;;;;;;;11.30;3.28;;;10.20;99.90;;;;;;5054329;28;20132;-62
2022/11/23 12:14:15;;;;;;;10.65;3.13;;;10.30;99.90;;;;;;5055242;28;20116;-62
2022/11/23 12:16:58;;;;;;;13.55;3.60;;;10.20;99.90;;;;;;5055480;28;20411;-62
2022/11/23 12:19:35;;;;;;;12.65;3.17;;;10.20;99.90;;;;;;5055445;28;20052;-62
2022/11/23 12:22:39;;;;;;;14.07;3.50;;;10.20;99.90;;;;;;5053297;28;20115;-62
2022/11/23 12:25:35;;;;;;;10.98;2.67;;;10.20;99.90;;;;;;5055229;28;20025;-62
2022/11/23 12:28:25;;;;;;;11.23;3.47;;;10.20;99.90;;;;;;5052983;28;20082;-62
2022/11/23 12:31:06;;;;;;;11.98;3.63;;;10.20;99.90;;;;;;5057300;28;20085;-63
2022/11/23 12:33:52;;;;;;;8.73;2.55;;;10.20;99.90;;;;;;5055082;28;20450;-62
2022/11/23 12:36:29;;;;;;;11.77;3.72;;;10.20;99.90;;;;;;5053292;28;20078;-62
2022/11/23 12:39:11;;;;;;;10.80;3.13;;;10.20;99.90;;;;;;5055872;28;20101;-61
2022/11/23 12:42:06;;;;;;;10.43;3.13;;;10.20;99.90;;;;;;5052326;28;20056;-62
2022/11/23 12:45:13;;;;;;;10.85;3.10;;;10.20;99.90;;;;;;5060823;28;20526;-62
2022/11/23 12:47:44;;;;;;;10.50;2.85;;;10.20;99.90;;;;;;4961699;28;20504;-62
2022/11/23 12:50:42;;;;;;;12.27;3.15;;;10.20;99.90;;;;;;5059292;28;20079;-62
2022/11/23 12:53:34;;;;;;;10.30;2.72;;;10.20;99.90;;;;;;5055104;28;20375;-62
2022/11/23 12:56:05;;;;;;;9.73;3.03;;;10.20;99.90;;;;;;5054004;28;20111;-62